Time;durP1;ratioP1;P1;durP2;ratioP2;P2;SDS_P1;SDS_P2;PMS_P1;PMS_P2;Temp;Humidity;BMP_temperature;BMP_pressure;BME280_temperature;BME280_humidity;BME280_pressure;Samples;Min_cycle;Max_cycle;Signal;HPM_P1;HPM_P2
2022/05/22 00:04:57;;;;;;;;;;;;;;;;;;5090921;27;19917;-69
2022/05/22 00:08:38;;;;;;;;;;;;;;;;;;5091874;27;19926;-69
2022/05/22 00:11:04;;;;;;;;;;;;;;;;;;5090849;28;19999;-69
2022/05/22 00:14:42;;;;;;;;;;;;;;;;;;5092107;28;19916;-69
2022/05/22 00:17:08;;;;;;;;;;;;;;;;;;5091309;28;19995;-69
2022/05/22 00:20:45;;;;;;;;;;;;;;;;;;5092058;28;19913;-69
2022/05/22 00:24:43;;;;;;;;;;;;;;;;;;5091501;27;19916;-70
2022/05/22 00:27:09;;;;;;;;;;;;;;;;;;5090811;28;20002;-69
2022/05/22 00:29:35;;;;;;;;;;;;;;;;;;5091086;28;19987;-69
2022/05/22 00:32:01;;;;;;;;;;;;;;;;;;5090732;28;19908;-70
2022/05/22 00:34:27;;;;;;;;;;;;;;;;;;5091129;28;19950;-69
2022/05/22 00:36:53;;;;;;;;;;;;;;;;;;5091281;28;20338;-71
2022/05/22 00:39:19;;;;;;;;;;;;;;;;;;5090934;28;20044;-70
2022/05/22 00:41:45;;;;;;;;;;;;;;;;;;5090966;28;20288;-69
2022/05/22 00:44:11;;;;;;;;;;;;;;;;;;5090868;28;20011;-69
2022/05/22 00:47:59;;;;;;;;;;;;;;;;;;5090967;27;20249;-69
2022/05/22 00:50:25;;;;;;;;;;;;;;;;;;5091831;28;19919;-69
2022/05/22 00:52:51;;;;;;;;;;;;;;;;;;5091323;28;20319;-69
2022/05/22 00:55:17;;;;;;;;;;;;;;;;;;5090807;28;19962;-69
2022/05/22 00:57:43;;;;;;;;;;;;;;;;;;5091000;28;19909;-69
2022/05/22 01:05:27;;;;;;;;;;;;;;;;;;5091239;28;20011;-69
2022/05/22 01:08:37;;;;;;;;;;;;;;;;;;5091104;28;20376;-69
2022/05/22 01:11:03;;;;;;;;;;;;;;;;;;5091207;28;20107;-69
2022/05/22 01:15:53;;;;;;;;;;;;;;;;;;5090954;27;19916;-69
2022/05/22 01:20:15;;;;;;;;;;;;;;;;;;5091287;27;19922;-69
2022/05/22 01:23:34;;;;;;;;;;;;;;;;;;5091384;28;20246;-69
2022/05/22 01:27:32;;;;;;;;;;;;;;;;;;5091960;27;19923;-70
2022/05/22 01:29:58;;;;;;;;;;;;;;;;;;5089659;28;20007;-70
2022/05/22 01:32:24;;;;;;;;;;;;;;;;;;5091220;28;19962;-70
2022/05/22 01:37:31;;;;;;;;;;;;;;;;;;5091348;27;19923;-69
2022/05/22 01:39:57;;;;;;;;;;;;;;;;;;5091452;28;20015;-69
2022/05/22 01:42:23;;;;;;;;;;;;;;;;;;5090559;28;19953;-70
2022/05/22 01:47:18;;;;;;;;;;;;;;;;;;5091262;27;20385;-69
2022/05/22 01:51:36;;;;;;;;;;;;;;;;;;5091216;27;19919;-69
2022/05/22 01:55:59;;;;;;;;;;;;;;;;;;5071269;28;19917;-69
2022/05/22 01:58:25;;;;;;;;;;;;;;;;;;5070673;28;20011;-69
2022/05/22 02:02:26;;;;;;;;;;;;;;;;;;5091540;27;19917;-69
2022/05/22 02:04:52;;;;;;;;;;;;;;;;;;5090777;28;19912;-69
2022/05/22 02:10:02;;;;;;;;;;;;;;;;;;5091173;28;19962;-69
2022/05/22 02:12:41;;;;;;;;;;;;;;;;;;5071439;28;19923;-70
2022/05/22 02:15:07;;;;;;;;;;;;;;;;;;5071030;28;19995;-70
2022/05/22 02:17:33;;;;;;;;;;;;;;;;;;5070617;28;19909;-70
2022/05/22 02:22:50;;;;;;;;;;;;;;;;;;5091484;28;20258;-69
2022/05/22 02:25:16;;;;;;;;;;;;;;;;;;5090796;28;20010;-70
2022/05/22 02:27:42;;;;;;;;;;;;;;;;;;5091131;28;19908;-69
2022/05/22 02:30:08;;;;;;;;;;;;;;;;;;5091134;28;19930;-70
2022/05/22 02:32:36;;;;;;;;;;;;;;;;;;5090629;28;20392;-70
2022/05/22 02:36:00;;;;;;;;;;;;;;;;;;5091763;28;19919;-69
2022/05/22 02:40:26;;;;;;;;;;;;;;;;;;5173284;27;20446;-69
2022/05/22 02:43:08;;;;;;;;;;;;;;;;;;5173927;27;20002;-70
2022/05/22 02:45:34;;;;;;;;;;;;;;;;;;5173209;27;19953;-69
2022/05/22 02:48:00;;;;;;;;;;;;;;;;;;5173573;27;19942;-69
2022/05/22 02:50:26;;;;;;;;;;;;;;;;;;5173471;27;19908;-69
2022/05/22 02:52:52;;;;;;;;;;;;;;;;;;5173033;27;19913;-69
2022/05/22 02:55:18;;;;;;;;;;;;;;;;;;5173503;27;19955;-69
2022/05/22 02:57:44;;;;;;;;;;;;;;;;;;5173372;27;19918;-69
2022/05/22 03:00:09;;;;;;;;;;;;;;;;;;5172934;27;20385;-69
2022/05/22 03:02:35;;;;;;;;;;;;;;;;;;5173216;27;19915;-69
2022/05/22 03:10:24;;;;;;;;;;;;;;;;;;5091760;28;19922;-69
2022/05/22 03:12:50;;;;;;;;;;;;;;;;;;5091270;28;19912;-69
2022/05/22 03:17:38;;;;;;;;;;;;;;;;;;5091919;27;19916;-70
2022/05/22 03:21:13;;;;;;;;;;;;;;;;;;5091006;28;20376;-69
2022/05/22 03:23:38;;;;;;;;;;;;;;;;;;5091246;28;19918;-69
2022/05/22 03:26:04;;;;;;;;;;;;;;;;;;5091163;28;19998;-69
2022/05/22 03:28:51;;;;;;;;;;;;;;;;;;5152630;27;20348;-69
2022/05/22 03:31:17;;;;;;;;;;;;;;;;;;5153171;27;20015;-69
2022/05/22 03:33:43;;;;;;;;;;;;;;;;;;5152710;27;20387;-69
2022/05/22 03:36:45;;;;;;;;;;;;;;;;;;5090921;28;19916;-69
2022/05/22 03:41:32;;;;;;;;;;;;;;;;;;5173688;27;19915;-69
2022/05/22 03:43:58;;;;;;;;;;;;;;;;;;5173231;27;20307;-69
2022/05/22 03:46:24;;;;;;;;;;;;;;;;;;5173567;27;20001;-70
2022/05/22 03:48:50;;;;;;;;;;;;;;;;;;5173072;27;19960;-69
2022/05/22 03:51:16;;;;;;;;;;;;;;;;;;5173453;27;19959;-69
2022/05/22 03:54:37;;;;;;;;;;;;;;;;;;5092022;27;19916;-69
2022/05/22 03:57:03;;;;;;;;;;;;;;;;;;5090978;28;19918;-69
2022/05/22 03:59:30;;;;;;;;;;;;;;;;;;5091096;28;19912;-69
2022/05/22 04:02:11;;;;;;;;;;;;;;;;;;5153012;27;20010;-69
2022/05/22 04:04:37;;;;;;;;;;;;;;;;;;5133864;27;19943;-69
2022/05/22 04:07:02;;;;;;;;;;;;;;;;;;5152779;27;19907;-69
2022/05/22 04:09:29;;;;;;;;;;;;;;;;;;5152870;27;20022;-69
2022/05/22 04:11:54;;;;;;;;;;;;;;;;;;5152215;27;20367;-69
2022/05/22 04:14:20;;;;;;;;;;;;;;;;;;5152584;27;19951;-69
2022/05/22 04:19:16;;;;;;;;;;;;;;;;;;5091628;27;19922;-69
2022/05/22 04:21:42;;;;;;;;;;;;;;;;;;5091327;28;20007;-69
2022/05/22 04:26:52;;;;;;;;;;;;;;;;;;5091202;28;20284;-69
2022/05/22 04:29:18;;;;;;;;;;;;;;;;;;5091072;28;19909;-69
2022/05/22 04:31:44;;;;;;;;;;;;;;;;;;5090668;28;19915;-69
2022/05/22 04:34:10;;;;;;;;;;;;;;;;;;5091041;28;20330;-69
2022/05/22 04:36:36;;;;;;;;;;;;;;;;;;5090976;28;19908;-69
2022/05/22 04:39:02;;;;;;;;;;;;;;;;;;5089295;28;19956;-69
2022/05/22 04:41:28;;;;;;;;;;;;;;;;;;5091073;28;19915;-69
2022/05/22 04:46:28;;;;;;;;;;;;;;;;;;5091213;28;20326;-69
2022/05/22 04:48:54;;;;;;;;;;;;;;;;;;5091261;28;20010;-69
2022/05/22 04:51:20;;;;;;;;;;;;;;;;;;5091167;28;20257;-69
2022/05/22 04:55:24;;;;;;;;;;;;;;;;;;5091928;27;19916;-69
2022/05/22 04:57:50;;;;;;;;;;;;;;;;;;5091366;28;19989;-69
2022/05/22 05:00:16;;;;;;;;;;;;;;;;;;5090938;28;19908;-69
2022/05/22 05:03:36;;;;;;;;;;;;;;;;;;5092092;27;20295;-68
2022/05/22 05:07:11;;;;;;;;;;;;;;;;;;5091239;28;19922;-70
2022/05/22 05:10:24;;;;;;;;;;;;;;;;;;5091775;27;19922;-69
2022/05/22 05:12:50;;;;;;;;;;;;;;;;;;5091307;28;20264;-69
2022/05/22 05:21:19;;;;;;;;;;;;;;;;;;5091351;27;20292;-70
2022/05/22 05:23:45;;;;;;;;;;;;;;;;;;5091341;28;20007;-70
2022/05/22 05:26:11;;;;;;;;;;;;;;;;;;5089972;28;19912;-70
2022/05/22 05:28:37;;;;;;;;;;;;;;;;;;5091082;28;19962;-70
2022/05/22 05:31:03;;;;;;;;;;;;;;;;;;5091072;28;19909;-70
2022/05/22 05:35:04;;;;;;;;;;;;;;;;;;5091320;27;19916;-69
2022/05/22 05:37:30;;;;;;;;;;;;;;;;;;5091262;28;19913;-69
2022/05/22 05:39:57;;;;;;;;;;;;;;;;;;5091461;28;19914;-69
2022/05/22 05:42:23;;;;;;;;;;;;;;;;;;5089469;28;19954;-69
2022/05/22 05:44:49;;;;;;;;;;;;;;;;;;5091149;28;20367;-69
2022/05/22 05:47:15;;;;;;;;;;;;;;;;;;5091330;28;19909;-69
2022/05/22 05:50:23;;;;;;;;;;;;;;;;;;5091102;27;19916;-71
2022/05/22 05:52:49;;;;;;;;;;;;;;;;;;5091270;28;19948;-71
2022/05/22 05:55:15;;;;;;;;;;;;;;;;;;5091472;28;19991;-71
2022/05/22 05:57:41;;;;;;;;;;;;;;;;;;5090843;28;20380;-71
2022/05/22 06:00:07;;;;;;;;;;;;;;;;;;5091082;28;19912;-71
2022/05/22 06:04:07;;;;;;;;;;;;;;;;;;5091103;27;19916;-69
2022/05/22 06:08:37;;;;;;;;;;;;;;;;;;5091529;27;19916;-69
2022/05/22 06:11:03;;;;;;;;;;;;;;;;;;5091038;28;20353;-69
2022/05/22 06:13:29;;;;;;;;;;;;;;;;;;5091203;28;19917;-69
2022/05/22 06:15:54;;;;;;;;;;;;;;;;;;5091174;28;19923;-70
2022/05/22 06:19:54;;;;;;;;;;;;;;;;;;5091862;27;20385;-69
2022/05/22 06:27:43;;;;;;;;;;;;;;;;;;5092126;27;20361;-69
2022/05/22 06:31:43;;;;;;;;;;;;;;;;;;5091295;27;19923;-69
2022/05/22 06:34:09;;;;;;;;;;;;;;;;;;5091328;28;19913;-69
2022/05/22 06:36:35;;;;;;;;;;;;;;;;;;5091276;28;20253;-69
2022/05/22 06:42:37;;;;;;;;;;;;;;;;;;5092154;27;19912;-69
2022/05/22 06:45:06;;;;;;;;;;;;;;;;;;5090975;28;19995;-70
2022/05/22 06:47:32;;;;;;;;;;;;;;;;;;5091274;28;19940;-69
2022/05/22 06:49:58;;;;;;;;;;;;;;;;;;5091203;28;19916;-71
2022/05/22 06:52:24;;;;;;;;;;;;;;;;;;5090801;28;19909;-69
2022/05/22 06:54:50;;;;;;;;;;;;;;;;;;5091117;28;19935;-70
2022/05/22 06:57:16;;;;;;;;;;;;;;;;;;5091080;28;19912;-69
2022/05/22 06:59:42;;;;;;;;;;;;;;;;;;5090704;28;20428;-69
2022/05/22 07:02:08;;;;;;;;;;;;;;;;;;5091019;28;20034;-69
2022/05/22 07:06:54;;;;;;;;;;;;;;;;;;5091174;28;19923;-70
2022/05/22 07:09:20;;;;;;;;;;;;;;;;;;5091367;28;20010;-71
2022/05/22 07:11:47;;;;;;;;;;;;;;;;;;5091206;28;19954;-70
2022/05/22 07:14:16;;;;;;;;;;;;;;;;;;5091045;28;19908;-70
2022/05/22 07:16:42;;;;;;;;;;;;;;;;;;5091187;28;19908;-70
2022/05/22 07:19:08;;;;;;;;;;;;;;;;;;5091203;28;20348;-70
2022/05/22 07:21:34;;;;;;;;;;;;;;;;;;5090664;28;19912;-69
2022/05/22 07:24:00;;;;;;;;;;;;;;;;;;5091016;28;19916;-72
2022/05/22 07:26:26;;;;;;;;;;;;;;;;;;5091018;28;19917;-70
2022/05/22 07:28:52;;;;;;;;;;;;;;;;;;5090561;28;19908;-70
2022/05/22 07:31:18;;;;;;;;;;;;;;;;;;5090855;28;20027;-69
2022/05/22 07:33:44;;;;;;;;;;;;;;;;;;5090796;28;19912;-70
2022/05/22 07:36:10;;;;;;;;;;;;;;;;;;5090389;28;19908;-70
2022/05/22 07:38:56;;;;;;;;;;;;;;;;;;5153038;27;20014;-69
2022/05/22 07:41:22;;;;;;;;;;;;;;;;;;5152494;27;19990;-70
2022/05/22 07:43:48;;;;;;;;;;;;;;;;;;5152720;27;19907;-69
2022/05/22 07:46:14;;;;;;;;;;;;;;;;;;5152720;27;19956;-70
2022/05/22 07:48:41;;;;;;;;;;;;;;;;;;5152229;27;19914;-69
2022/05/22 07:51:07;;;;;;;;;;;;;;;;;;5152636;27;19942;-70
2022/05/22 07:53:33;;;;;;;;;;;;;;;;;;5134071;27;19908;-69
2022/05/22 07:55:59;;;;;;;;;;;;;;;;;;5152102;27;19914;-69
2022/05/22 07:58:25;;;;;;;;;;;;;;;;;;5152385;27;19915;-69
2022/05/22 08:00:51;;;;;;;;;;;;;;;;;;5152638;27;19959;-69
2022/05/22 08:03:17;;;;;;;;;;;;;;;;;;5152016;27;19907;-69
2022/05/22 08:05:43;;;;;;;;;;;;;;;;;;5152623;27;20379;-69
2022/05/22 08:08:09;;;;;;;;;;;;;;;;;;5152409;27;20007;-70
2022/05/22 08:10:36;;;;;;;;;;;;;;;;;;5151880;27;19912;-70
2022/05/22 08:15:25;;;;;;;;;;;;;;;;;;5091351;27;19917;-70
2022/05/22 08:17:51;;;;;;;;;;;;;;;;;;5090995;28;20007;-70
2022/05/22 08:20:16;;;;;;;;;;;;;;;;;;5091452;28;19909;-70
2022/05/22 08:24:04;;;;;;;;;;;;;;;;;;5091073;28;19917;-69
2022/05/22 08:26:30;;;;;;;;;;;;;;;;;;5091220;28;19999;-71
2022/05/22 08:28:56;;;;;;;;;;;;;;;;;;5091136;28;19999;-69
2022/05/22 08:37:18;;;;;;;;;;;;;;;;;;5091216;27;19913;-69
2022/05/22 08:39:44;;;;;;;;;;;;;;;;;;5091604;28;20283;-69
2022/05/22 08:44:29;;;;;;;;;;;;;;;;;;5091194;28;19920;-69
2022/05/22 08:47:29;;;;;;;;;;;;;;;;;;5091515;28;19916;-69
2022/05/22 08:49:55;;;;;;;;;;;;;;;;;;5091641;28;20448;-70
2022/05/22 08:52:21;;;;;;;;;;;;;;;;;;5090825;28;19912;-69
2022/05/22 08:54:47;;;;;;;;;;;;;;;;;;5091438;28;19958;-69
2022/05/22 08:59:58;;;;;;;;;;;;;;;;;;5090764;28;19916;-70
2022/05/22 09:02:23;;;;;;;;;;;;;;;;;;5091216;28;19909;-70
2022/05/22 09:04:49;;;;;;;;;;;;;;;;;;5091050;28;19909;-70
2022/05/22 09:07:16;;;;;;;;;;;;;;;;;;5090562;28;19916;-70
2022/05/22 09:09:42;;;;;;;;;;;;;;;;;;5090373;28;19940;-70
2022/05/22 09:12:08;;;;;;;;;;;;;;;;;;5090683;28;19961;-69
2022/05/22 09:14:34;;;;;;;;;;;;;;;;;;5090383;28;19912;-70
2022/05/22 09:17:00;;;;;;;;;;;;;;;;;;5090729;28;19908;-70
2022/05/22 09:19:26;;;;;;;;;;;;;;;;;;5090218;28;19916;-70
2022/05/22 09:21:52;;;;;;;;;;;;;;;;;;5090962;28;19908;-70
2022/05/22 09:24:18;;;;;;;;;;;;;;;;;;5090843;28;20349;-70
2022/05/22 09:28:10;;;;;;;;;;;;;;;;;;5091063;28;20295;-69
2022/05/22 09:30:36;;;;;;;;;;;;;;;;;;5091370;28;20003;-69
2022/05/22 09:33:02;;;;;;;;;;;;;;;;;;5091160;28;19912;-69
2022/05/22 09:35:29;;;;;;;;;;;;;;;;;;5090730;28;19999;-69
2022/05/22 09:39:35;;;;;;;;;;;;;;;;;;5091386;27;20281;-69
2022/05/22 09:42:01;;;;;;;;;;;;;;;;;;5091175;28;19912;-69
2022/05/22 09:44:27;;;;;;;;;;;;;;;;;;5091184;28;20364;-69
2022/05/22 09:46:53;;;;;;;;;;;;;;;;;;5091221;28;19991;-69
2022/05/22 09:49:20;;;;;;;;;;;;;;;;;;5090805;28;19909;-69
2022/05/22 09:51:57;;;;;;;;;;;;;;;;;;5091755;27;19919;-69
2022/05/22 09:54:23;;;;;;;;;;;;;;;;;;5091215;28;20003;-69
2022/05/22 09:56:49;;;;;;;;;;;;;;;;;;5089461;28;19931;-69
2022/05/22 09:59:15;;;;;;;;;;;;;;;;;;5091129;28;19912;-69
2022/05/22 10:01:41;;;;;;;;;;;;;;;;;;5090662;28;19934;-69
2022/05/22 10:04:07;;;;;;;;;;;;;;;;;;5091289;28;19969;-69
2022/05/22 10:06:33;;;;;;;;;;;;;;;;;;5091095;28;19957;-69
2022/05/22 10:08:59;;;;;;;;;;;;;;;;;;5090775;28;19947;-70
2022/05/22 10:11:25;;;;;;;;;;;;;;;;;;5090850;28;19927;-70
2022/05/22 10:13:51;;;;;;;;;;;;;;;;;;5090909;28;19908;-70
2022/05/22 10:16:17;;;;;;;;;;;;;;;;;;5090325;28;19923;-70
2022/05/22 10:18:43;;;;;;;;;;;;;;;;;;5089498;28;19915;-70
2022/05/22 10:21:09;;;;;;;;;;;;;;;;;;5090868;28;20361;-71
2022/05/22 10:23:35;;;;;;;;;;;;;;;;;;5090282;28;20417;-71
2022/05/22 10:26:01;;;;;;;;;;;;;;;;;;5090644;28;19908;-71
2022/05/22 10:28:27;;;;;;;;;;;;;;;;;;5090659;28;19939;-70
2022/05/22 10:30:53;;;;;;;;;;;;;;;;;;5090123;28;20439;-70
2022/05/22 10:33:19;;;;;;;;;;;;;;;;;;5090575;28;19909;-70
2022/05/22 10:35:45;;;;;;;;;;;;;;;;;;5090741;28;19912;-70
2022/05/22 10:38:11;;;;;;;;;;;;;;;;;;5090270;28;20292;-70
2022/05/22 10:43:21;;;;;;;;;;;;;;;;;;5090374;28;19923;-70
2022/05/22 10:45:47;;;;;;;;;;;;;;;;;;5089997;28;19908;-71
2022/05/22 10:48:17;;;;;;;;;;;;;;;;;;5090323;28;19915;-70
2022/05/22 10:50:43;;;;;;;;;;;;;;;;;;5100330;28;19977;-70
2022/05/22 10:53:09;;;;;;;;;;;;;;;;;;5110312;28;20006;-70
2022/05/22 10:55:35;;;;;;;;;;;;;;;;;;5110464;28;19915;-70
2022/05/22 10:58:00;;;;;;;;;;;;;;;;;;5109957;28;19908;-70
2022/05/22 11:00:26;;;;;;;;;;;;;;;;;;5110393;28;20390;-70
2022/05/22 11:02:53;;;;;;;;;;;;;;;;;;5098806;28;19953;-70
2022/05/22 11:05:19;;;;;;;;;;;;;;;;;;5096291;28;19915;-70
2022/05/22 11:07:45;;;;;;;;;;;;;;;;;;5096559;28;20360;-70
2022/05/22 11:10:11;;;;;;;;;;;;;;;;;;5096492;28;20275;-70
2022/05/22 11:12:37;;;;;;;;;;;;;;;;;;5096213;28;20307;-70
2022/05/22 11:15:03;;;;;;;;;;;;;;;;;;5096738;28;19908;-71
2022/05/22 11:17:29;;;;;;;;;;;;;;;;;;5096405;28;19954;-71
2022/05/22 11:19:54;;;;;;;;;;;;;;;;;;5096351;28;19999;-71
2022/05/22 11:22:20;;;;;;;;;;;;;;;;;;5096378;28;20383;-70
2022/05/22 11:26:59;;;;;;;;;;;;;;;;;;5111571;27;19922;-70
2022/05/22 11:29:25;;;;;;;;;;;;;;;;;;5111639;28;19994;-71
2022/05/22 11:31:51;;;;;;;;;;;;;;;;;;5110266;28;19909;-70
2022/05/22 11:34:17;;;;;;;;;;;;;;;;;;5111157;28;19953;-69
2022/05/22 11:36:43;;;;;;;;;;;;;;;;;;5111378;28;19912;-69
2022/05/22 11:39:09;;;;;;;;;;;;;;;;;;5111417;28;19908;-69
2022/05/22 11:41:35;;;;;;;;;;;;;;;;;;5110983;28;19908;-71
2022/05/22 11:44:01;;;;;;;;;;;;;;;;;;5111384;28;19908;-70
2022/05/22 11:46:27;;;;;;;;;;;;;;;;;;5111232;28;19923;-71
2022/05/22 11:48:53;;;;;;;;;;;;;;;;;;5110895;28;19908;-71
2022/05/22 11:51:19;;;;;;;;;;;;;;;;;;5111217;28;19908;-71
2022/05/22 11:53:45;;;;;;;;;;;;;;;;;;5111153;28;19959;-70
2022/05/22 11:56:11;;;;;;;;;;;;;;;;;;5110738;28;20372;-69
2022/05/22 11:58:37;;;;;;;;;;;;;;;;;;5111331;28;19912;-69
2022/05/22 12:01:03;;;;;;;;;;;;;;;;;;5110941;28;19954;-69
2022/05/22 12:03:30;;;;;;;;;;;;;;;;;;5111419;28;20360;-69
2022/05/22 12:07:58;;;;;;;;;;;;;;;;;;5112255;27;19922;-69
2022/05/22 12:10:24;;;;;;;;;;;;;;;;;;5111172;28;19994;-70
2022/05/22 12:12:50;;;;;;;;;;;;;;;;;;5111287;28;19908;-70
2022/05/22 12:15:16;;;;;;;;;;;;;;;;;;5111057;28;19908;-70
2022/05/22 12:17:42;;;;;;;;;;;;;;;;;;5111323;28;19908;-70
2022/05/22 12:20:10;;;;;;;;;;;;;;;;;;5111207;28;19972;-70
2022/05/22 12:23:19;;;;;;;;;;;;;;;;;;5110767;28;20398;-70
2022/05/22 12:25:26;;;;;;;;;;;;;;;;;;5105320;28;19908;-70
2022/05/22 12:27:52;;;;;;;;;;;;;;;;;;5111251;28;20308;-70
2022/05/22 12:30:17;;;;;;;;;;;;;;;;;;5110741;28;19955;-70
2022/05/22 12:32:43;;;;;;;;;;;;;;;;;;5111237;28;20020;-70
2022/05/22 12:35:10;;;;;;;;;;;;;;;;;;5111152;28;19933;-70
2022/05/22 12:37:36;;;;;;;;;;;;;;;;;;5110811;28;19915;-70
2022/05/22 12:40:02;;;;;;;;;;;;;;;;;;5111015;28;19908;-70
2022/05/22 12:42:28;;;;;;;;;;;;;;;;;;5111128;28;19999;-70
2022/05/22 12:44:54;;;;;;;;;;;;;;;;;;5110681;28;19908;-70
2022/05/22 12:47:20;;;;;;;;;;;;;;;;;;5110857;28;19923;-70
2022/05/22 12:52:06;;;;;;;;;;;;;;;;;;5090819;27;20411;-69
2022/05/22 12:54:32;;;;;;;;;;;;;;;;;;5091316;28;19916;-69
2022/05/22 12:56:58;;;;;;;;;;;;;;;;;;5091138;28;20015;-69
2022/05/22 12:59:25;;;;;;;;;;;;;;;;;;5090713;28;19992;-69
2022/05/22 13:04:14;;;;;;;;;;;;;;;;;;5091308;27;19912;-70
2022/05/22 13:06:40;;;;;;;;;;;;;;;;;;5090865;28;20007;-70
2022/05/22 13:09:06;;;;;;;;;;;;;;;;;;5091472;28;19908;-70
2022/05/22 13:11:32;;;;;;;;;;;;;;;;;;5090702;28;19919;-70
2022/05/22 13:13:58;;;;;;;;;;;;;;;;;;5091359;28;19915;-70
2022/05/22 13:16:24;;;;;;;;;;;;;;;;;;5091063;28;19909;-70
2022/05/22 13:18:50;;;;;;;;;;;;;;;;;;5090780;28;20424;-71
2022/05/22 13:21:16;;;;;;;;;;;;;;;;;;5091022;28;19950;-71
2022/05/22 13:23:42;;;;;;;;;;;;;;;;;;5091218;28;20388;-70
2022/05/22 13:26:09;;;;;;;;;;;;;;;;;;5090542;28;20053;-71
2022/05/22 13:29:07;;;;;;;;;;;;;;;;;;5092128;27;19917;-70
2022/05/22 13:31:33;;;;;;;;;;;;;;;;;;5091541;28;19912;-70
2022/05/22 13:33:59;;;;;;;;;;;;;;;;;;5090959;28;20289;-69
2022/05/22 13:36:25;;;;;;;;;;;;;;;;;;5091475;28;20324;-69
2022/05/22 13:38:51;;;;;;;;;;;;;;;;;;5091049;28;19916;-69
2022/05/22 13:41:17;;;;;;;;;;;;;;;;;;5090702;28;19909;-69
2022/05/22 13:43:43;;;;;;;;;;;;;;;;;;5091384;28;19916;-69
2022/05/22 13:47:15;;;;;;;;;;;;;;;;;;5091332;27;20415;-70
2022/05/22 13:49:41;;;;;;;;;;;;;;;;;;5091071;28;20007;-70
2022/05/22 13:58:18;;;;;;;;;;;;;;;;;;5091349;27;20415;-69
2022/05/22 14:00:44;;;;;;;;;;;;;;;;;;5090955;28;20006;-69
2022/05/22 14:03:10;;;;;;;;;;;;;;;;;;5091437;28;20331;-70
2022/05/22 14:05:36;;;;;;;;;;;;;;;;;;5091154;28;20276;-69
2022/05/22 14:08:02;;;;;;;;;;;;;;;;;;5090821;28;20012;-70
2022/05/22 14:10:28;;;;;;;;;;;;;;;;;;5090980;28;19952;-70
2022/05/22 14:12:54;;;;;;;;;;;;;;;;;;5091055;28;19908;-70
2022/05/22 14:15:19;;;;;;;;;;;;;;;;;;5090884;28;19913;-70
2022/05/22 14:18:57;;;;;;;;;;;;;;;;;;5091482;27;19916;-71
2022/05/22 14:21:23;;;;;;;;;;;;;;;;;;5090003;28;20464;-71
2022/05/22 14:26:03;;;;;;;;;;;;;;;;;;5071963;28;19916;-70
2022/05/22 14:28:29;;;;;;;;;;;;;;;;;;5070167;28;19919;-70
2022/05/22 14:30:55;;;;;;;;;;;;;;;;;;5070626;28;19908;-71
2022/05/22 14:34:32;;;;;;;;;;;;;;;;;;5091849;27;20403;-70
2022/05/22 14:36:58;;;;;;;;;;;;;;;;;;5090960;28;19958;-70
2022/05/22 14:39:24;;;;;;;;;;;;;;;;;;5091239;28;19908;-70
2022/05/22 14:41:50;;;;;;;;;;;;;;;;;;5091182;28;19962;-70
2022/05/22 14:44:16;;;;;;;;;;;;;;;;;;5090862;28;19912;-70
2022/05/22 14:46:42;;;;;;;;;;;;;;;;;;5091156;28;19912;-70
2022/05/22 14:49:08;;;;;;;;;;;;;;;;;;5089905;28;20422;-70
2022/05/22 14:51:33;;;;;;;;;;;;;;;;;;5089340;28;20381;-69
2022/05/22 14:53:59;;;;;;;;;;;;;;;;;;5090905;28;20262;-70
2022/05/22 14:56:25;;;;;;;;;;;;;;;;;;5091507;28;20284;-69
2022/05/22 14:58:51;;;;;;;;;;;;;;;;;;5090542;28;19919;-71
2022/05/22 15:01:17;;;;;;;;;;;;;;;;;;5090625;28;19914;-70
2022/05/22 15:03:43;;;;;;;;;;;;;;;;;;5090722;28;20304;-71
2022/05/22 15:06:09;;;;;;;;;;;;;;;;;;5090284;28;19958;-72
2022/05/22 15:08:52;;;;;;;;;;;;;;;;;;5112030;27;20010;-72
2022/05/22 15:11:18;;;;;;;;;;;;;;;;;;5111333;28;19963;-70
2022/05/22 15:13:44;;;;;;;;;;;;;;;;;;5112187;28;19915;-70
2022/05/22 15:16:10;;;;;;;;;;;;;;;;;;5111565;28;20380;-71
2022/05/22 15:21:21;;;;;;;;;;;;;;;;;;5111432;28;20299;-70
2022/05/22 15:26:31;;;;;;;;;;;;;;;;;;5110897;28;19918;-71
2022/05/22 15:28:58;;;;;;;;;;;;;;;;;;5111230;28;19908;-71
2022/05/22 15:31:24;;;;;;;;;;;;;;;;;;5111219;28;20264;-71
2022/05/22 15:33:50;;;;;;;;;;;;;;;;;;5110952;28;19908;-70
2022/05/22 15:36:17;;;;;;;;;;;;;;;;;;5111523;28;19915;-72
2022/05/22 15:38:43;;;;;;;;;;;;;;;;;;5111192;28;19911;-71
2022/05/22 15:41:09;;;;;;;;;;;;;;;;;;5110634;28;19908;-72
2022/05/22 15:43:35;;;;;;;;;;;;;;;;;;5110929;28;19960;-71
2022/05/22 15:46:01;;;;;;;;;;;;;;;;;;5111037;28;19912;-71
2022/05/22 15:51:12;;;;;;;;;;;;;;;;;;5110945;28;19931;-71
2022/05/22 15:53:38;;;;;;;;;;;;;;;;;;5110300;28;20360;-71
2022/05/22 15:56:04;;;;;;;;;;;;;;;;;;5110764;28;19908;-71
2022/05/22 15:58:30;;;;;;;;;;;;;;;;;;5110741;28;19915;-71
2022/05/22 16:00:56;;;;;;;;;;;;;;;;;;5110253;28;19969;-71
2022/05/22 16:03:22;;;;;;;;;;;;;;;;;;5110623;28;20003;-71
2022/05/22 16:06:34;;;;;;;;;;;;;;;;;;5091694;27;19917;-69
2022/05/22 16:08:59;;;;;;;;;;;;;;;;;;5090920;28;20448;-69
2022/05/22 16:11:25;;;;;;;;;;;;;;;;;;5091199;28;19908;-69
2022/05/22 16:13:51;;;;;;;;;;;;;;;;;;5091125;28;19909;-69
2022/05/22 16:16:17;;;;;;;;;;;;;;;;;;5090726;28;19909;-69
2022/05/22 16:20:57;;;;;;;;;;;;;;;;;;5091904;27;19938;-69
2022/05/22 16:23:23;;;;;;;;;;;;;;;;;;5090784;28;20440;-70
2022/05/22 16:25:49;;;;;;;;;;;;;;;;;;5091163;28;19915;-70
2022/05/22 16:28:15;;;;;;;;;;;;;;;;;;5091137;28;19908;-69
2022/05/22 16:32:29;;;;;;;;;;;;;;;;;;5092045;27;19919;-69
2022/05/22 16:34:55;;;;;;;;;;;;;;;;;;5091158;28;19916;-69
2022/05/22 16:37:21;;;;;;;;;;;;;;;;;;5090729;28;19954;-70
2022/05/22 16:39:47;;;;;;;;;;;;;;;;;;5091147;28;19912;-69
2022/05/22 16:42:13;;;;;;;;;;;;;;;;;;5091355;28;20372;-70
2022/05/22 16:44:39;;;;;;;;;;;;;;;;;;5090617;28;19908;-69
2022/05/22 16:53:01;;;;;;;;;;;;;;;;;;5091049;28;19912;-70
2022/05/22 16:56:13;;;;;;;;;;;;;;;;;;5092161;27;19917;-69
2022/05/22 16:58:39;;;;;;;;;;;;;;;;;;5090747;28;20278;-69
2022/05/22 17:01:06;;;;;;;;;;;;;;;;;;5091212;28;19915;-69
2022/05/22 17:03:32;;;;;;;;;;;;;;;;;;5090677;28;19926;-72
2022/05/22 17:05:58;;;;;;;;;;;;;;;;;;5090998;28;19909;-70
2022/05/22 17:08:24;;;;;;;;;;;;;;;;;;5091183;28;19954;-70
2022/05/22 17:10:50;;;;;;;;;;;;;;;;;;5090634;28;19909;-70
2022/05/22 17:13:16;;;;;;;;;;;;;;;;;;5090933;28;20414;-70
2022/05/22 17:15:42;;;;;;;;;;;;;;;;;;5091163;28;20317;-70
2022/05/22 17:18:08;;;;;;;;;;;;;;;;;;5090457;28;20284;-69
2022/05/22 17:21:58;;;;;;;;;;;;;;;;;;5132215;27;20435;-70
2022/05/22 17:24:24;;;;;;;;;;;;;;;;;;5132106;28;20006;-70
2022/05/22 17:26:50;;;;;;;;;;;;;;;;;;5131570;27;20006;-70
2022/05/22 17:29:16;;;;;;;;;;;;;;;;;;5130831;28;19918;-70
2022/05/22 17:31:42;;;;;;;;;;;;;;;;;;5131623;27;19915;-70
2022/05/22 17:34:45;;;;;;;;;;;;;;;;;;5091439;27;19916;-69
2022/05/22 17:37:11;;;;;;;;;;;;;;;;;;5091111;28;20006;-69
2022/05/22 17:39:37;;;;;;;;;;;;;;;;;;5091165;28;20357;-69
2022/05/22 17:45:22;;;;;;;;;;;;;;;;;;5091926;27;19923;-70
2022/05/22 17:47:48;;;;;;;;;;;;;;;;;;5090870;28;20007;-71
2022/05/22 17:50:14;;;;;;;;;;;;;;;;;;5091122;28;19930;-70
2022/05/22 17:58:09;;;;;;;;;;;;;;;;;;5091498;27;19916;-71
2022/05/22 18:00:35;;;;;;;;;;;;;;;;;;5090942;28;19947;-70
2022/05/22 18:03:01;;;;;;;;;;;;;;;;;;5091130;28;19909;-70
2022/05/22 18:05:27;;;;;;;;;;;;;;;;;;5091092;28;19961;-70
2022/05/22 18:08:33;;;;;;;;;;;;;;;;;;5091102;27;19919;-70
2022/05/22 18:19:16;;;;;;;;;;;;;;;;;;5091523;27;19916;-69
2022/05/22 18:21:42;;;;;;;;;;;;;;;;;;5090767;28;20011;-71
2022/05/22 18:26:53;;;;;;;;;;;;;;;;;;5091140;28;19915;-70
2022/05/22 18:29:19;;;;;;;;;;;;;;;;;;5091256;28;20315;-70
2022/05/22 18:32:17;;;;;;;;;;;;;;;;;;5091842;27;19919;-69
2022/05/22 18:34:43;;;;;;;;;;;;;;;;;;5091085;28;20003;-69
2022/05/22 18:37:09;;;;;;;;;;;;;;;;;;5090602;28;20414;-69
2022/05/22 18:39:35;;;;;;;;;;;;;;;;;;5091130;28;19913;-70
2022/05/22 18:42:01;;;;;;;;;;;;;;;;;;5090693;28;19908;-70
2022/05/22 18:44:28;;;;;;;;;;;;;;;;;;5091158;28;19908;-70
2022/05/22 18:47:39;;;;;;;;;;;;;;;;;;5091487;28;19923;-72
2022/05/22 18:50:16;;;;;;;;;;;;;;;;;;5091266;28;19923;-70
2022/05/22 18:52:42;;;;;;;;;;;;;;;;;;5089950;28;19913;-69
2022/05/22 18:55:08;;;;;;;;;;;;;;;;;;5091182;28;19915;-69
2022/05/22 18:57:34;;;;;;;;;;;;;;;;;;5090746;28;19908;-71
2022/05/22 18:59:59;;;;;;;;;;;;;;;;;;5091410;28;19909;-71
2022/05/22 19:03:51;;;;;;;;;;;;;;;;;;5090919;27;20407;-70
2022/05/22 19:08:18;;;;;;;;;;;;;;;;;;5111848;27;19912;-71
2022/05/22 19:12:25;;;;;;;;;;;;;;;;;;5152465;27;19918;-71
2022/05/22 19:14:51;;;;;;;;;;;;;;;;;;5153124;27;19994;-70
2022/05/22 19:17:17;;;;;;;;;;;;;;;;;;5152396;27;19908;-71
2022/05/22 19:19:43;;;;;;;;;;;;;;;;;;5152725;27;19911;-71
2022/05/22 19:27:44;;;;;;;;;;;;;;;;;;5091932;27;19916;-70
2022/05/22 19:30:12;;;;;;;;;;;;;;;;;;5091295;28;20026;-71
2022/05/22 19:32:38;;;;;;;;;;;;;;;;;;5091104;28;19908;-70
2022/05/22 19:35:06;;;;;;;;;;;;;;;;;;5091218;28;20394;-70
2022/05/22 19:38:59;;;;;;;;;;;;;;;;;;5091546;28;20403;-71
2022/05/22 19:45:41;;;;;;;;;;;;;;;;;;5091487;28;19916;-70
2022/05/22 19:48:10;;;;;;;;;;;;;;;;;;5091306;28;20269;-69
2022/05/22 19:50:36;;;;;;;;;;;;;;;;;;5091316;28;19908;-70
2022/05/22 19:58:52;;;;;;;;;;;;;;;;;;5091565;27;19916;-72
2022/05/22 20:04:14;;;;;;;;;;;;;;;;;;5091805;27;20384;-70